sensor_id;sensor_type;location;lat;lon;timestamp;P1;durP1;ratioP1;P2;durP2;ratioP2
6463;SDS011;3265;42.694;23.282;2023-11-19T00:01:20;4.77;;;3.87;;
6463;SDS011;3265;42.694;23.282;2023-11-19T00:03:46;4.83;;;3.93;;
6463;SDS011;3265;42.694;23.282;2023-11-19T00:06:15;7.00;;;4.20;;
6463;SDS011;3265;42.694;23.282;2023-11-19T00:08:42;4.27;;;3.87;;
6463;SDS011;3265;42.694;23.282;2023-11-19T00:11:09;4.70;;;4.00;;
6463;SDS011;3265;42.694;23.282;2023-11-19T00:13:36;5.27;;;4.23;;
6463;SDS011;3265;42.694;23.282;2023-11-19T00:16:03;4.80;;;4.10;;
6463;SDS011;3265;42.694;23.282;2023-11-19T00:18:33;4.40;;;3.90;;
6463;SDS011;3265;42.694;23.282;2023-11-19T00:21:01;5.07;;;4.23;;
6463;SDS011;3265;42.694;23.282;2023-11-19T00:23:28;5.43;;;4.03;;
6463;SDS011;3265;42.694;23.282;2023-11-19T00:25:55;5.57;;;4.60;;
6463;SDS011;3265;42.694;23.282;2023-11-19T00:28:22;4.20;;;3.70;;
6463;SDS011;3265;42.694;23.282;2023-11-19T00:30:49;4.90;;;4.27;;
6463;SDS011;3265;42.694;23.282;2023-11-19T00:33:17;4.43;;;4.00;;
6463;SDS011;3265;42.694;23.282;2023-11-19T00:35:45;4.77;;;4.10;;
6463;SDS011;3265;42.694;23.282;2023-11-19T00:38:13;6.33;;;4.43;;
6463;SDS011;3265;42.694;23.282;2023-11-19T00:40:40;5.00;;;4.00;;
6463;SDS011;3265;42.694;23.282;2023-11-19T00:43:07;4.93;;;4.00;;
6463;SDS011;3265;42.694;23.282;2023-11-19T00:45:34;4.80;;;3.80;;
6463;SDS011;3265;42.694;23.282;2023-11-19T00:48:00;5.67;;;3.90;;
6463;SDS011;3265;42.694;23.282;2023-11-19T00:50:28;4.40;;;4.00;;
6463;SDS011;3265;42.694;23.282;2023-11-19T00:52:56;5.07;;;4.10;;
6463;SDS011;3265;42.694;23.282;2023-11-19T00:55:22;4.70;;;3.90;;
6463;SDS011;3265;42.694;23.282;2023-11-19T00:57:52;4.60;;;4.10;;
6463;SDS011;3265;42.694;23.282;2023-11-19T01:00:28;5.10;;;4.00;;
6463;SDS011;3265;42.694;23.282;2023-11-19T01:02:57;5.27;;;4.00;;
6463;SDS011;3265;42.694;23.282;2023-11-19T01:05:25;5.37;;;4.50;;
6463;SDS011;3265;42.694;23.282;2023-11-19T01:07:53;4.20;;;3.57;;
6463;SDS011;3265;42.694;23.282;2023-11-19T01:10:22;6.33;;;4.10;;
6463;SDS011;3265;42.694;23.282;2023-11-19T01:12:49;4.67;;;3.80;;
6463;SDS011;3265;42.694;23.282;2023-11-19T01:15:16;4.63;;;3.90;;
6463;SDS011;3265;42.694;23.282;2023-11-19T01:17:45;5.30;;;4.00;;
6463;SDS011;3265;42.694;23.282;2023-11-19T01:20:12;6.13;;;3.67;;
6463;SDS011;3265;42.694;23.282;2023-11-19T01:22:39;4.50;;;4.03;;
6463;SDS011;3265;42.694;23.282;2023-11-19T01:25:07;4.37;;;3.97;;
6463;SDS011;3265;42.694;23.282;2023-11-19T01:27:35;5.33;;;4.30;;
6463;SDS011;3265;42.694;23.282;2023-11-19T01:30:02;4.37;;;3.63;;
6463;SDS011;3265;42.694;23.282;2023-11-19T01:32:31;4.53;;;3.60;;
6463;SDS011;3265;42.694;23.282;2023-11-19T01:34:58;4.53;;;3.50;;
6463;SDS011;3265;42.694;23.282;2023-11-19T01:37:25;4.83;;;3.73;;
6463;SDS011;3265;42.694;23.282;2023-11-19T01:39:51;4.90;;;3.70;;
6463;SDS011;3265;42.694;23.282;2023-11-19T01:42:18;4.33;;;3.37;;
6463;SDS011;3265;42.694;23.282;2023-11-19T01:44:56;9.47;;;4.00;;
6463;SDS011;3265;42.694;23.282;2023-11-19T01:47:25;4.07;;;3.63;;
6463;SDS011;3265;42.694;23.282;2023-11-19T01:49:52;6.03;;;3.80;;
6463;SDS011;3265;42.694;23.282;2023-11-19T01:52:19;4.60;;;3.80;;
6463;SDS011;3265;42.694;23.282;2023-11-19T01:54:46;4.17;;;3.60;;
6463;SDS011;3265;42.694;23.282;2023-11-19T01:57:14;5.17;;;3.63;;
6463;SDS011;3265;42.694;23.282;2023-11-19T01:59:41;4.20;;;3.67;;
6463;SDS011;3265;42.694;23.282;2023-11-19T02:02:10;4.30;;;3.70;;
6463;SDS011;3265;42.694;23.282;2023-11-19T02:04:37;4.90;;;3.60;;
6463;SDS011;3265;42.694;23.282;2023-11-19T02:07:06;5.60;;;4.00;;
6463;SDS011;3265;42.694;23.282;2023-11-19T02:09:34;5.90;;;4.00;;
6463;SDS011;3265;42.694;23.282;2023-11-19T02:12:01;3.90;;;3.50;;
6463;SDS011;3265;42.694;23.282;2023-11-19T02:14:28;4.63;;;3.63;;
6463;SDS011;3265;42.694;23.282;2023-11-19T02:16:56;4.50;;;3.77;;
6463;SDS011;3265;42.694;23.282;2023-11-19T02:19:24;4.47;;;3.60;;
6463;SDS011;3265;42.694;23.282;2023-11-19T02:21:50;5.17;;;3.87;;
6463;SDS011;3265;42.694;23.282;2023-11-19T02:24:17;4.47;;;3.80;;
6463;SDS011;3265;42.694;23.282;2023-11-19T02:26:51;4.43;;;3.70;;
6463;SDS011;3265;42.694;23.282;2023-11-19T02:29:25;4.33;;;3.53;;
6463;SDS011;3265;42.694;23.282;2023-11-19T02:31:52;5.33;;;3.80;;
6463;SDS011;3265;42.694;23.282;2023-11-19T02:34:20;5.30;;;3.67;;
6463;SDS011;3265;42.694;23.282;2023-11-19T02:36:47;4.30;;;3.60;;
6463;SDS011;3265;42.694;23.282;2023-11-19T02:39:15;7.07;;;3.90;;
6463;SDS011;3265;42.694;23.282;2023-11-19T02:41:46;5.10;;;4.10;;
6463;SDS011;3265;42.694;23.282;2023-11-19T02:44:16;4.20;;;3.47;;
6463;SDS011;3265;42.694;23.282;2023-11-19T02:46:44;4.47;;;3.77;;
6463;SDS011;3265;42.694;23.282;2023-11-19T02:49:13;4.63;;;3.77;;
6463;SDS011;3265;42.694;23.282;2023-11-19T02:51:40;5.57;;;4.10;;
6463;SDS011;3265;42.694;23.282;2023-11-19T02:54:07;4.70;;;3.87;;
6463;SDS011;3265;42.694;23.282;2023-11-19T02:56:35;5.07;;;4.10;;
6463;SDS011;3265;42.694;23.282;2023-11-19T02:59:04;4.67;;;3.67;;
6463;SDS011;3265;42.694;23.282;2023-11-19T03:01:40;7.93;;;4.57;;
6463;SDS011;3265;42.694;23.282;2023-11-19T03:04:10;5.97;;;4.43;;
6463;SDS011;3265;42.694;23.282;2023-11-19T03:06:37;7.57;;;4.03;;
6463;SDS011;3265;42.694;23.282;2023-11-19T03:09:04;5.67;;;3.63;;
6463;SDS011;3265;42.694;23.282;2023-11-19T03:11:35;4.63;;;3.60;;
6463;SDS011;3265;42.694;23.282;2023-11-19T03:14:02;5.40;;;3.40;;
6463;SDS011;3265;42.694;23.282;2023-11-19T03:16:29;4.20;;;3.60;;
6463;SDS011;3265;42.694;23.282;2023-11-19T03:18:56;5.27;;;3.90;;
6463;SDS011;3265;42.694;23.282;2023-11-19T03:21:28;5.13;;;3.77;;
6463;SDS011;3265;42.694;23.282;2023-11-19T03:23:56;5.60;;;4.00;;
6463;SDS011;3265;42.694;23.282;2023-11-19T03:26:25;5.33;;;4.03;;
6463;SDS011;3265;42.694;23.282;2023-11-19T03:28:52;5.77;;;4.33;;
6463;SDS011;3265;42.694;23.282;2023-11-19T03:31:19;6.17;;;3.57;;
6463;SDS011;3265;42.694;23.282;2023-11-19T03:33:46;6.07;;;3.73;;
6463;SDS011;3265;42.694;23.282;2023-11-19T03:36:13;10.20;;;4.10;;
6463;SDS011;3265;42.694;23.282;2023-11-19T03:38:41;5.57;;;3.83;;
6463;SDS011;3265;42.694;23.282;2023-11-19T03:41:11;5.57;;;3.90;;
6463;SDS011;3265;42.694;23.282;2023-11-19T03:43:41;5.10;;;4.13;;
6463;SDS011;3265;42.694;23.282;2023-11-19T03:46:15;5.33;;;3.97;;
6463;SDS011;3265;42.694;23.282;2023-11-19T03:48:43;5.27;;;4.00;;
6463;SDS011;3265;42.694;23.282;2023-11-19T03:51:11;4.50;;;3.53;;
6463;SDS011;3265;42.694;23.282;2023-11-19T03:53:41;4.83;;;3.83;;
6463;SDS011;3265;42.694;23.282;2023-11-19T03:56:08;6.30;;;3.90;;
6463;SDS011;3265;42.694;23.282;2023-11-19T03:58:36;4.33;;;3.70;;
6463;SDS011;3265;42.694;23.282;2023-11-19T04:01:04;4.47;;;3.70;;
6463;SDS011;3265;42.694;23.282;2023-11-19T04:03:31;4.87;;;3.83;;
6463;SDS011;3265;42.694;23.282;2023-11-19T04:05:58;4.50;;;3.57;;
6463;SDS011;3265;42.694;23.282;2023-11-19T04:08:25;5.83;;;3.60;;
6463;SDS011;3265;42.694;23.282;2023-11-19T04:10:53;5.00;;;4.00;;
6463;SDS011;3265;42.694;23.282;2023-11-19T04:13:20;4.73;;;3.57;;
6463;SDS011;3265;42.694;23.282;2023-11-19T04:15:49;3.93;;;3.40;;
6463;SDS011;3265;42.694;23.282;2023-11-19T04:18:16;5.30;;;4.00;;
6463;SDS011;3265;42.694;23.282;2023-11-19T04:20:43;4.63;;;3.63;;
6463;SDS011;3265;42.694;23.282;2023-11-19T04:23:10;4.93;;;3.80;;
6463;SDS011;3265;42.694;23.282;2023-11-19T04:25:37;4.40;;;3.90;;
6463;SDS011;3265;42.694;23.282;2023-11-19T04:28:05;5.27;;;4.00;;
6463;SDS011;3265;42.694;23.282;2023-11-19T04:30:33;6.27;;;3.57;;
6463;SDS011;3265;42.694;23.282;2023-11-19T04:33:00;5.20;;;4.10;;
6463;SDS011;3265;42.694;23.282;2023-11-19T04:35:27;4.40;;;3.70;;
6463;SDS011;3265;42.694;23.282;2023-11-19T04:37:54;5.17;;;3.90;;
6463;SDS011;3265;42.694;23.282;2023-11-19T04:40:26;5.63;;;4.40;;
6463;SDS011;3265;42.694;23.282;2023-11-19T04:42:56;5.43;;;4.40;;
6463;SDS011;3265;42.694;23.282;2023-11-19T04:45:28;5.93;;;4.57;;
6463;SDS011;3265;42.694;23.282;2023-11-19T04:47:59;6.23;;;4.27;;
6463;SDS011;3265;42.694;23.282;2023-11-19T04:50:25;5.57;;;4.07;;
6463;SDS011;3265;42.694;23.282;2023-11-19T04:53:02;7.83;;;4.60;;
6463;SDS011;3265;42.694;23.282;2023-11-19T04:55:42;6.17;;;4.50;;
6463;SDS011;3265;42.694;23.282;2023-11-19T04:58:12;8.67;;;4.37;;
6463;SDS011;3265;42.694;23.282;2023-11-19T05:00:41;6.67;;;4.83;;
6463;SDS011;3265;42.694;23.282;2023-11-19T05:03:07;8.03;;;5.63;;
6463;SDS011;3265;42.694;23.282;2023-11-19T05:05:34;5.27;;;4.63;;
6463;SDS011;3265;42.694;23.282;2023-11-19T05:08:04;6.33;;;4.50;;
6463;SDS011;3265;42.694;23.282;2023-11-19T05:10:30;4.97;;;3.90;;
6463;SDS011;3265;42.694;23.282;2023-11-19T05:13:03;8.40;;;3.60;;
6463;SDS011;3265;42.694;23.282;2023-11-19T05:15:30;5.57;;;3.80;;
6463;SDS011;3265;42.694;23.282;2023-11-19T05:17:58;5.67;;;4.27;;
6463;SDS011;3265;42.694;23.282;2023-11-19T05:20:25;6.97;;;4.80;;
6463;SDS011;3265;42.694;23.282;2023-11-19T05:22:51;7.83;;;4.73;;
6463;SDS011;3265;42.694;23.282;2023-11-19T05:25:18;7.67;;;5.00;;
6463;SDS011;3265;42.694;23.282;2023-11-19T05:27:46;5.40;;;4.30;;
6463;SDS011;3265;42.694;23.282;2023-11-19T05:30:13;8.97;;;4.17;;
6463;SDS011;3265;42.694;23.282;2023-11-19T05:32:40;8.17;;;4.87;;
6463;SDS011;3265;42.694;23.282;2023-11-19T05:35:10;6.60;;;4.20;;
6463;SDS011;3265;42.694;23.282;2023-11-19T05:37:37;6.30;;;4.70;;
6463;SDS011;3265;42.694;23.282;2023-11-19T05:40:05;5.83;;;4.20;;
6463;SDS011;3265;42.694;23.282;2023-11-19T05:42:39;8.00;;;4.60;;
6463;SDS011;3265;42.694;23.282;2023-11-19T05:45:06;6.83;;;4.43;;
6463;SDS011;3265;42.694;23.282;2023-11-19T05:47:34;7.97;;;4.90;;
6463;SDS011;3265;42.694;23.282;2023-11-19T05:50:01;8.40;;;5.63;;
6463;SDS011;3265;42.694;23.282;2023-11-19T05:52:31;11.37;;;5.43;;
6463;SDS011;3265;42.694;23.282;2023-11-19T05:55:01;7.80;;;4.93;;
6463;SDS011;3265;42.694;23.282;2023-11-19T05:57:29;7.70;;;5.10;;
6463;SDS011;3265;42.694;23.282;2023-11-19T05:59:56;7.77;;;4.43;;
6463;SDS011;3265;42.694;23.282;2023-11-19T06:02:24;8.57;;;4.60;;
6463;SDS011;3265;42.694;23.282;2023-11-19T06:04:52;7.30;;;5.00;;
6463;SDS011;3265;42.694;23.282;2023-11-19T06:07:19;7.60;;;5.20;;
6463;SDS011;3265;42.694;23.282;2023-11-19T06:09:47;6.27;;;4.53;;
6463;SDS011;3265;42.694;23.282;2023-11-19T06:12:14;8.37;;;4.87;;
6463;SDS011;3265;42.694;23.282;2023-11-19T06:14:41;7.97;;;4.90;;
6463;SDS011;3265;42.694;23.282;2023-11-19T06:17:08;10.07;;;5.87;;
6463;SDS011;3265;42.694;23.282;2023-11-19T06:19:36;6.57;;;4.53;;
6463;SDS011;3265;42.694;23.282;2023-11-19T06:22:03;9.23;;;5.60;;
6463;SDS011;3265;42.694;23.282;2023-11-19T06:24:30;9.40;;;6.30;;
6463;SDS011;3265;42.694;23.282;2023-11-19T06:26:58;10.13;;;7.03;;
6463;SDS011;3265;42.694;23.282;2023-11-19T06:29:25;9.50;;;6.17;;
6463;SDS011;3265;42.694;23.282;2023-11-19T06:31:51;9.07;;;5.73;;
6463;SDS011;3265;42.694;23.282;2023-11-19T06:34:18;6.70;;;4.70;;
6463;SDS011;3265;42.694;23.282;2023-11-19T06:36:45;6.17;;;4.23;;
6463;SDS011;3265;42.694;23.282;2023-11-19T06:39:13;7.10;;;4.97;;
6463;SDS011;3265;42.694;23.282;2023-11-19T06:41:44;7.10;;;5.20;;
6463;SDS011;3265;42.694;23.282;2023-11-19T06:44:12;4.63;;;3.90;;
6463;SDS011;3265;42.694;23.282;2023-11-19T06:46:39;5.83;;;4.10;;
6463;SDS011;3265;42.694;23.282;2023-11-19T06:49:09;7.23;;;5.33;;
6463;SDS011;3265;42.694;23.282;2023-11-19T06:51:39;8.80;;;5.90;;
6463;SDS011;3265;42.694;23.282;2023-11-19T06:54:14;6.80;;;4.90;;
6463;SDS011;3265;42.694;23.282;2023-11-19T06:56:41;6.40;;;4.63;;
6463;SDS011;3265;42.694;23.282;2023-11-19T06:59:08;5.80;;;4.43;;
6463;SDS011;3265;42.694;23.282;2023-11-19T07:01:37;8.00;;;4.90;;
6463;SDS011;3265;42.694;23.282;2023-11-19T07:04:10;5.83;;;4.23;;
6463;SDS011;3265;42.694;23.282;2023-11-19T07:06:40;5.87;;;4.33;;
6463;SDS011;3265;42.694;23.282;2023-11-19T07:09:13;8.17;;;5.00;;
6463;SDS011;3265;42.694;23.282;2023-11-19T07:11:46;7.83;;;5.50;;
6463;SDS011;3265;42.694;23.282;2023-11-19T07:14:15;6.77;;;4.90;;
6463;SDS011;3265;42.694;23.282;2023-11-19T07:16:43;6.83;;;4.90;;
6463;SDS011;3265;42.694;23.282;2023-11-19T07:19:11;6.43;;;4.50;;
6463;SDS011;3265;42.694;23.282;2023-11-19T07:21:40;8.97;;;5.10;;
6463;SDS011;3265;42.694;23.282;2023-11-19T07:24:09;7.73;;;5.40;;
6463;SDS011;3265;42.694;23.282;2023-11-19T07:26:40;8.10;;;5.03;;
6463;SDS011;3265;42.694;23.282;2023-11-19T07:29:08;7.33;;;5.03;;
6463;SDS011;3265;42.694;23.282;2023-11-19T07:31:35;7.63;;;5.43;;
6463;SDS011;3265;42.694;23.282;2023-11-19T07:34:03;11.47;;;6.80;;
6463;SDS011;3265;42.694;23.282;2023-11-19T07:36:31;6.73;;;4.80;;
6463;SDS011;3265;42.694;23.282;2023-11-19T07:38:58;6.37;;;4.40;;
6463;SDS011;3265;42.694;23.282;2023-11-19T07:41:25;7.43;;;5.30;;
6463;SDS011;3265;42.694;23.282;2023-11-19T07:43:52;9.87;;;5.20;;
6463;SDS011;3265;42.694;23.282;2023-11-19T07:46:19;5.97;;;4.50;;
6463;SDS011;3265;42.694;23.282;2023-11-19T07:48:46;10.83;;;6.70;;
6463;SDS011;3265;42.694;23.282;2023-11-19T07:51:14;10.33;;;5.90;;
6463;SDS011;3265;42.694;23.282;2023-11-19T07:53:41;11.33;;;6.63;;
6463;SDS011;3265;42.694;23.282;2023-11-19T07:56:08;7.27;;;5.03;;
6463;SDS011;3265;42.694;23.282;2023-11-19T07:58:36;8.20;;;5.33;;
6463;SDS011;3265;42.694;23.282;2023-11-19T08:01:02;8.37;;;5.40;;
6463;SDS011;3265;42.694;23.282;2023-11-19T08:03:30;7.10;;;4.90;;
6463;SDS011;3265;42.694;23.282;2023-11-19T08:05:57;6.67;;;4.47;;
6463;SDS011;3265;42.694;23.282;2023-11-19T08:08:25;5.40;;;4.30;;
6463;SDS011;3265;42.694;23.282;2023-11-19T08:10:54;6.83;;;4.57;;
6463;SDS011;3265;42.694;23.282;2023-11-19T08:13:22;8.20;;;5.60;;
6463;SDS011;3265;42.694;23.282;2023-11-19T08:15:50;9.17;;;5.50;;
6463;SDS011;3265;42.694;23.282;2023-11-19T08:18:17;9.20;;;5.40;;
6463;SDS011;3265;42.694;23.282;2023-11-19T08:20:44;6.70;;;4.47;;
6463;SDS011;3265;42.694;23.282;2023-11-19T08:23:15;5.50;;;4.23;;
6463;SDS011;3265;42.694;23.282;2023-11-19T08:25:44;7.43;;;5.10;;
6463;SDS011;3265;42.694;23.282;2023-11-19T08:28:10;7.67;;;4.87;;
6463;SDS011;3265;42.694;23.282;2023-11-19T08:30:37;9.33;;;5.43;;
6463;SDS011;3265;42.694;23.282;2023-11-19T08:33:09;8.07;;;5.77;;
6463;SDS011;3265;42.694;23.282;2023-11-19T08:35:36;11.00;;;6.73;;
6463;SDS011;3265;42.694;23.282;2023-11-19T08:38:10;6.87;;;5.10;;
6463;SDS011;3265;42.694;23.282;2023-11-19T08:40:38;7.10;;;5.03;;
6463;SDS011;3265;42.694;23.282;2023-11-19T08:43:15;6.67;;;5.07;;
6463;SDS011;3265;42.694;23.282;2023-11-19T08:45:42;8.17;;;5.33;;
6463;SDS011;3265;42.694;23.282;2023-11-19T08:48:11;9.00;;;5.43;;
6463;SDS011;3265;42.694;23.282;2023-11-19T08:50:38;7.97;;;5.40;;
6463;SDS011;3265;42.694;23.282;2023-11-19T08:53:06;9.67;;;5.40;;
6463;SDS011;3265;42.694;23.282;2023-11-19T08:55:34;7.47;;;4.77;;
6463;SDS011;3265;42.694;23.282;2023-11-19T08:58:04;5.60;;;4.07;;
6463;SDS011;3265;42.694;23.282;2023-11-19T09:00:30;7.37;;;5.27;;
6463;SDS011;3265;42.694;23.282;2023-11-19T09:02:58;6.40;;;4.90;;
6463;SDS011;3265;42.694;23.282;2023-11-19T09:05:27;6.70;;;4.60;;
6463;SDS011;3265;42.694;23.282;2023-11-19T09:07:56;7.20;;;4.87;;
6463;SDS011;3265;42.694;23.282;2023-11-19T09:10:23;10.00;;;6.43;;
6463;SDS011;3265;42.694;23.282;2023-11-19T09:12:51;6.27;;;5.13;;
6463;SDS011;3265;42.694;23.282;2023-11-19T09:15:20;7.70;;;5.83;;
6463;SDS011;3265;42.694;23.282;2023-11-19T09:17:46;9.17;;;6.00;;
6463;SDS011;3265;42.694;23.282;2023-11-19T09:20:14;9.77;;;6.47;;
6463;SDS011;3265;42.694;23.282;2023-11-19T09:22:44;13.63;;;8.00;;
6463;SDS011;3265;42.694;23.282;2023-11-19T09:25:11;10.90;;;6.97;;
6463;SDS011;3265;42.694;23.282;2023-11-19T09:27:41;12.47;;;7.17;;
6463;SDS011;3265;42.694;23.282;2023-11-19T09:30:09;12.63;;;6.90;;
6463;SDS011;3265;42.694;23.282;2023-11-19T09:32:38;13.00;;;7.40;;
6463;SDS011;3265;42.694;23.282;2023-11-19T09:35:05;9.00;;;5.53;;
6463;SDS011;3265;42.694;23.282;2023-11-19T09:37:32;8.07;;;5.23;;
6463;SDS011;3265;42.694;23.282;2023-11-19T09:39:59;7.63;;;5.70;;
6463;SDS011;3265;42.694;23.282;2023-11-19T09:42:26;7.03;;;5.13;;
6463;SDS011;3265;42.694;23.282;2023-11-19T09:44:53;10.13;;;5.53;;
6463;SDS011;3265;42.694;23.282;2023-11-19T09:47:24;6.27;;;4.63;;
6463;SDS011;3265;42.694;23.282;2023-11-19T09:49:56;6.80;;;4.63;;
6463;SDS011;3265;42.694;23.282;2023-11-19T09:52:23;8.83;;;5.47;;
6463;SDS011;3265;42.694;23.282;2023-11-19T09:54:50;8.43;;;5.60;;
6463;SDS011;3265;42.694;23.282;2023-11-19T09:57:18;7.83;;;5.60;;
6463;SDS011;3265;42.694;23.282;2023-11-19T09:59:45;9.23;;;6.07;;
6463;SDS011;3265;42.694;23.282;2023-11-19T10:02:13;8.10;;;5.53;;
6463;SDS011;3265;42.694;23.282;2023-11-19T10:04:40;11.80;;;7.13;;
6463;SDS011;3265;42.694;23.282;2023-11-19T10:07:11;12.57;;;6.83;;
6463;SDS011;3265;42.694;23.282;2023-11-19T10:09:38;9.77;;;6.63;;
6463;SDS011;3265;42.694;23.282;2023-11-19T10:12:05;9.23;;;6.27;;
6463;SDS011;3265;42.694;23.282;2023-11-19T10:14:32;7.43;;;5.00;;
6463;SDS011;3265;42.694;23.282;2023-11-19T10:17:04;6.97;;;5.00;;
6463;SDS011;3265;42.694;23.282;2023-11-19T10:19:34;7.80;;;5.23;;
6463;SDS011;3265;42.694;23.282;2023-11-19T10:22:02;8.80;;;5.40;;
6463;SDS011;3265;42.694;23.282;2023-11-19T10:24:33;10.10;;;6.37;;
6463;SDS011;3265;42.694;23.282;2023-11-19T10:27:00;8.57;;;5.23;;
6463;SDS011;3265;42.694;23.282;2023-11-19T10:29:29;6.33;;;4.43;;
6463;SDS011;3265;42.694;23.282;2023-11-19T10:31:56;7.23;;;5.60;;
6463;SDS011;3265;42.694;23.282;2023-11-19T10:34:24;8.93;;;5.20;;
6463;SDS011;3265;42.694;23.282;2023-11-19T10:36:52;6.40;;;4.50;;
6463;SDS011;3265;42.694;23.282;2023-11-19T10:39:19;5.57;;;4.30;;
6463;SDS011;3265;42.694;23.282;2023-11-19T10:41:50;6.37;;;4.50;;
6463;SDS011;3265;42.694;23.282;2023-11-19T10:44:32;5.57;;;4.20;;
6463;SDS011;3265;42.694;23.282;2023-11-19T10:47:01;6.27;;;4.07;;
6463;SDS011;3265;42.694;23.282;2023-11-19T10:49:28;9.53;;;5.30;;
6463;SDS011;3265;42.694;23.282;2023-11-19T10:51:55;6.43;;;4.73;;
6463;SDS011;3265;42.694;23.282;2023-11-19T10:54:23;5.90;;;4.13;;
6463;SDS011;3265;42.694;23.282;2023-11-19T10:56:54;12.03;;;7.13;;
6463;SDS011;3265;42.694;23.282;2023-11-19T10:59:26;7.67;;;5.50;;
6463;SDS011;3265;42.694;23.282;2023-11-19T11:01:56;9.93;;;5.90;;
6463;SDS011;3265;42.694;23.282;2023-11-19T11:04:24;6.00;;;4.17;;
6463;SDS011;3265;42.694;23.282;2023-11-19T11:06:54;7.97;;;4.70;;
6463;SDS011;3265;42.694;23.282;2023-11-19T11:09:23;6.63;;;4.63;;
6463;SDS011;3265;42.694;23.282;2023-11-19T11:11:56;7.47;;;4.30;;
6463;SDS011;3265;42.694;23.282;2023-11-19T11:14:25;6.27;;;3.90;;
6463;SDS011;3265;42.694;23.282;2023-11-19T11:16:54;8.03;;;5.07;;
6463;SDS011;3265;42.694;23.282;2023-11-19T11:19:24;5.70;;;4.33;;
6463;SDS011;3265;42.694;23.282;2023-11-19T11:21:52;4.33;;;3.63;;
6463;SDS011;3265;42.694;23.282;2023-11-19T11:24:30;3.80;;;3.40;;
6463;SDS011;3265;42.694;23.282;2023-11-19T11:27:16;3.00;;;2.70;;
6463;SDS011;3265;42.694;23.282;2023-11-19T11:30:01;5.87;;;3.67;;
6463;SDS011;3265;42.694;23.282;2023-11-19T11:32:38;4.07;;;3.23;;
6463;SDS011;3265;42.694;23.282;2023-11-19T11:35:17;6.80;;;3.43;;
6463;SDS011;3265;42.694;23.282;2023-11-19T11:37:55;4.47;;;3.50;;
6463;SDS011;3265;42.694;23.282;2023-11-19T11:40:28;6.10;;;3.70;;
6463;SDS011;3265;42.694;23.282;2023-11-19T11:42:56;3.87;;;3.30;;
6463;SDS011;3265;42.694;23.282;2023-11-19T11:45:34;4.70;;;3.60;;
6463;SDS011;3265;42.694;23.282;2023-11-19T11:48:11;9.93;;;4.60;;
6463;SDS011;3265;42.694;23.282;2023-11-19T11:53:34;4.60;;;3.80;;
6463;SDS011;3265;42.694;23.282;2023-11-19T11:56:02;9.23;;;4.40;;
6463;SDS011;3265;42.694;23.282;2023-11-19T11:58:34;5.30;;;4.00;;
6463;SDS011;3265;42.694;23.282;2023-11-19T12:01:03;4.23;;;3.53;;
6463;SDS011;3265;42.694;23.282;2023-11-19T12:03:32;5.57;;;4.37;;
6463;SDS011;3265;42.694;23.282;2023-11-19T12:06:02;5.37;;;4.50;;
6463;SDS011;3265;42.694;23.282;2023-11-19T12:08:29;5.33;;;3.60;;
6463;SDS011;3265;42.694;23.282;2023-11-19T12:10:57;5.40;;;4.20;;
6463;SDS011;3265;42.694;23.282;2023-11-19T12:13:25;7.33;;;3.67;;
6463;SDS011;3265;42.694;23.282;2023-11-19T12:16:14;3.13;;;2.80;;
6463;SDS011;3265;42.694;23.282;2023-11-19T12:18:41;3.00;;;2.70;;
6463;SDS011;3265;42.694;23.282;2023-11-19T12:21:08;5.57;;;3.30;;
6463;SDS011;3265;42.694;23.282;2023-11-19T12:23:44;5.97;;;3.80;;
6463;SDS011;3265;42.694;23.282;2023-11-19T12:29:02;9.23;;;4.10;;
6463;SDS011;3265;42.694;23.282;2023-11-19T12:31:34;6.40;;;3.60;;
6463;SDS011;3265;42.694;23.282;2023-11-19T12:34:09;5.03;;;3.13;;
6463;SDS011;3265;42.694;23.282;2023-11-19T12:36:38;5.17;;;3.13;;
6463;SDS011;3265;42.694;23.282;2023-11-19T12:39:06;3.20;;;2.90;;
6463;SDS011;3265;42.694;23.282;2023-11-19T12:41:48;4.00;;;3.10;;
6463;SDS011;3265;42.694;23.282;2023-11-19T12:44:16;9.13;;;3.33;;
6463;SDS011;3265;42.694;23.282;2023-11-19T12:46:44;4.80;;;2.90;;
6463;SDS011;3265;42.694;23.282;2023-11-19T12:49:11;3.20;;;2.80;;
6463;SDS011;3265;42.694;23.282;2023-11-19T12:51:38;4.13;;;3.27;;
6463;SDS011;3265;42.694;23.282;2023-11-19T12:54:04;5.90;;;3.10;;
6463;SDS011;3265;42.694;23.282;2023-11-19T12:56:31;5.23;;;3.13;;
6463;SDS011;3265;42.694;23.282;2023-11-19T12:59:01;3.70;;;3.30;;
6463;SDS011;3265;42.694;23.282;2023-11-19T13:01:37;6.10;;;4.10;;
6463;SDS011;3265;42.694;23.282;2023-11-19T13:04:16;5.27;;;3.63;;
6463;SDS011;3265;42.694;23.282;2023-11-19T13:06:44;6.37;;;4.00;;
6463;SDS011;3265;42.694;23.282;2023-11-19T13:09:21;5.43;;;3.80;;
6463;SDS011;3265;42.694;23.282;2023-11-19T13:11:48;7.20;;;3.90;;
6463;SDS011;3265;42.694;23.282;2023-11-19T13:14:15;5.87;;;3.73;;
6463;SDS011;3265;42.694;23.282;2023-11-19T13:16:42;5.00;;;3.73;;
6463;SDS011;3265;42.694;23.282;2023-11-19T13:19:10;4.87;;;3.90;;
6463;SDS011;3265;42.694;23.282;2023-11-19T13:21:38;4.20;;;3.60;;
6463;SDS011;3265;42.694;23.282;2023-11-19T13:24:05;8.20;;;4.10;;
6463;SDS011;3265;42.694;23.282;2023-11-19T13:26:35;7.03;;;5.43;;
6463;SDS011;3265;42.694;23.282;2023-11-19T13:29:01;5.93;;;4.05;;
6463;SDS011;3265;42.694;23.282;2023-11-19T13:31:28;8.27;;;5.40;;
6463;SDS011;3265;42.694;23.282;2023-11-19T13:33:55;8.80;;;6.20;;
6463;SDS011;3265;42.694;23.282;2023-11-19T13:36:23;7.20;;;4.77;;
6463;SDS011;3265;42.694;23.282;2023-11-19T13:38:54;6.97;;;5.13;;
6463;SDS011;3265;42.694;23.282;2023-11-19T13:41:24;7.23;;;4.67;;
6463;SDS011;3265;42.694;23.282;2023-11-19T13:43:51;8.70;;;5.10;;
6463;SDS011;3265;42.694;23.282;2023-11-19T13:46:18;9.43;;;6.33;;
6463;SDS011;3265;42.694;23.282;2023-11-19T13:48:45;9.87;;;6.60;;
6463;SDS011;3265;42.694;23.282;2023-11-19T13:51:14;10.80;;;6.07;;
6463;SDS011;3265;42.694;23.282;2023-11-19T13:53:41;10.30;;;6.10;;
6463;SDS011;3265;42.694;23.282;2023-11-19T13:56:09;7.87;;;5.80;;
6463;SDS011;3265;42.694;23.282;2023-11-19T13:58:36;3.87;;;3.30;;
6463;SDS011;3265;42.694;23.282;2023-11-19T14:01:03;3.90;;;3.23;;
6463;SDS011;3265;42.694;23.282;2023-11-19T14:03:31;4.30;;;3.30;;
6463;SDS011;3265;42.694;23.282;2023-11-19T14:05:58;6.47;;;4.07;;
6463;SDS011;3265;42.694;23.282;2023-11-19T14:08:25;9.60;;;4.53;;
6463;SDS011;3265;42.694;23.282;2023-11-19T14:10:52;14.67;;;6.13;;
6463;SDS011;3265;42.694;23.282;2023-11-19T14:13:21;9.30;;;5.53;;
6463;SDS011;3265;42.694;23.282;2023-11-19T14:15:49;9.40;;;5.80;;
6463;SDS011;3265;42.694;23.282;2023-11-19T14:18:16;10.53;;;6.10;;
6463;SDS011;3265;42.694;23.282;2023-11-19T14:20:43;9.20;;;5.67;;
6463;SDS011;3265;42.694;23.282;2023-11-19T14:23:10;26.77;;;13.07;;
6463;SDS011;3265;42.694;23.282;2023-11-19T14:25:36;8.27;;;5.27;;
6463;SDS011;3265;42.694;23.282;2023-11-19T14:28:03;6.10;;;4.13;;
6463;SDS011;3265;42.694;23.282;2023-11-19T14:30:32;6.97;;;4.00;;
6463;SDS011;3265;42.694;23.282;2023-11-19T14:32:59;5.87;;;4.03;;
6463;SDS011;3265;42.694;23.282;2023-11-19T14:35:26;7.03;;;4.60;;
6463;SDS011;3265;42.694;23.282;2023-11-19T14:37:55;5.40;;;3.90;;
6463;SDS011;3265;42.694;23.282;2023-11-19T14:40:22;5.83;;;4.50;;
6463;SDS011;3265;42.694;23.282;2023-11-19T14:42:48;7.27;;;4.10;;
6463;SDS011;3265;42.694;23.282;2023-11-19T14:45:15;7.30;;;4.30;;
6463;SDS011;3265;42.694;23.282;2023-11-19T14:47:44;6.43;;;4.33;;
6463;SDS011;3265;42.694;23.282;2023-11-19T14:50:11;5.80;;;4.37;;
6463;SDS011;3265;42.694;23.282;2023-11-19T14:52:37;7.57;;;4.87;;
6463;SDS011;3265;42.694;23.282;2023-11-19T14:55:05;6.20;;;4.57;;
6463;SDS011;3265;42.694;23.282;2023-11-19T14:57:32;9.37;;;5.20;;
6463;SDS011;3265;42.694;23.282;2023-11-19T15:00:01;9.73;;;5.17;;
6463;SDS011;3265;42.694;23.282;2023-11-19T15:02:37;8.60;;;6.00;;
6463;SDS011;3265;42.694;23.282;2023-11-19T15:05:07;13.90;;;6.57;;
6463;SDS011;3265;42.694;23.282;2023-11-19T15:07:35;13.63;;;7.60;;
6463;SDS011;3265;42.694;23.282;2023-11-19T15:10:03;7.47;;;5.70;;
6463;SDS011;3265;42.694;23.282;2023-11-19T15:12:34;7.57;;;4.57;;
6463;SDS011;3265;42.694;23.282;2023-11-19T15:15:04;8.60;;;5.00;;